Time;durP1;ratioP1;P1;durP2;ratioP2;P2;SDS_P1;SDS_P2;PMS_P1;PMS_P2;Temp;Humidity;BMP_temperature;BMP_pressure;BME280_temperature;BME280_humidity;BME280_pressure;Samples;Min_cycle;Max_cycle;Signal;HPM_P1;HPM_P2
2022/09/24 00:01:34;;;;;;;1999.90;999.90;;;;;;;-144.65;100.00;64500.88;5014287;28;20061;-77
2022/09/24 00:04:04;;;;;;;1999.90;999.90;;;;;;;-144.65;100.00;64500.88;5014870;28;20030;-78
2022/09/24 00:06:33;;;;;;;1999.90;999.90;;;;;;;-144.65;100.00;64500.88;5014585;28;20116;-77
2022/09/24 00:08:58;;;;;;;1999.90;999.90;;;;;;;-144.65;100.00;64500.88;5014794;28;20034;-77
2022/09/24 00:11:26;;;;;;;1999.90;999.90;;;;;;;-144.65;100.00;64500.88;5015543;28;20037;-77
2022/09/24 00:13:52;;;;;;;1999.90;999.90;;;;;;;-144.65;100.00;64500.88;5015158;28;20129;-77
2022/09/24 00:16:20;;;;;;;1999.90;999.90;;;;;;;-144.65;100.00;64500.88;5015810;28;20544;-77
2022/09/24 00:18:46;;;;;;;1999.90;999.90;;;;;;;-144.65;100.00;64500.88;4998051;28;20397;-78
2022/09/24 00:21:20;;;;;;;1999.90;999.90;;;;;;;-144.65;100.00;64500.88;5016636;28;20022;-79
2022/09/24 00:23:51;;;;;;;1999.90;999.90;;;;;;;-144.65;100.00;64500.88;5016486;28;20030;-77
2022/09/24 00:29:02;;;;;;;1999.90;999.90;;;;;;;-144.65;100.00;64500.88;5016512;28;20033;-78
2022/09/24 00:31:27;;;;;;;1999.90;999.90;;;;;;;-144.65;100.00;64500.88;5015786;28;20102;-78
2022/09/24 00:33:53;;;;;;;1999.90;999.90;;;;;;;-144.65;100.00;64500.88;5016147;28;20018;-79
2022/09/24 00:36:21;;;;;;;1999.90;999.90;;;;;;;-144.65;100.00;64500.88;5015707;28;20025;-77
2022/09/24 00:38:51;;;;;;;1999.90;999.90;;;;;;;-144.65;100.00;64500.88;5014262;28;20053;-77
2022/09/24 00:41:19;;;;;;;1999.90;999.90;;;;;;;-144.65;100.00;64500.88;5014647;28;20104;-78
2022/09/24 00:43:45;;;;;;;1999.90;999.90;;;;;;;-144.65;100.00;64500.88;5015873;28;20048;-78
2022/09/24 00:46:38;;;;;;;1999.90;999.90;;;;;;;-144.65;100.00;64500.88;5017578;28;20109;-76
2022/09/24 00:49:10;;;;;;;1999.90;999.90;;;;;;;-144.65;100.00;64500.88;5014022;28;20033;-76
2022/09/24 00:51:37;;;;;;;1999.90;999.90;;;;;;;-144.65;100.00;64500.88;5012966;28;20033;-76
2022/09/24 00:54:13;;;;;;;1999.90;999.90;;;;;;;-144.65;100.00;64500.88;5012613;28;20029;-76
2022/09/24 00:56:41;;;;;;;1999.90;999.90;;;;;;;-144.65;100.00;64500.88;5012955;28;20480;-76
2022/09/24 00:59:10;;;;;;;1999.90;999.90;;;;;;;-144.65;100.00;64500.88;5011556;28;20022;-76
2022/09/24 01:01:36;;;;;;;1999.90;999.90;;;;;;;-144.65;100.00;64500.88;5012941;28;20040;-74
2022/09/24 01:04:03;;;;;;;1999.90;999.90;;;;;;;-144.65;100.00;64500.88;5013039;28;20029;-76
2022/09/24 01:06:28;;;;;;;1999.90;999.90;;;;;;;-144.65;100.00;64500.88;5013654;28;20030;-76
2022/09/24 01:08:57;;;;;;;1999.90;999.90;;;;;;;-144.65;100.00;64500.88;5014084;28;20025;-76
2022/09/24 01:11:31;;;;;;;1999.90;999.90;;;;;;;-144.65;100.00;64500.88;5013659;28;20033;-76
2022/09/24 01:14:10;;;;;;;1999.90;999.90;;;;;;;-144.65;100.00;64500.88;5030796;28;20050;-76
2022/09/24 01:16:41;;;;;;;1999.90;999.90;;;;;;;-144.65;100.00;64500.88;5032409;28;20394;-75
2022/09/24 01:19:24;;;;;;;1999.90;999.90;;;;;;;-144.65;100.00;64500.88;5032415;28;20029;-75
2022/09/24 01:21:56;;;;;;;1999.90;999.90;;;;;;;-144.65;100.00;64500.88;5032605;28;20064;-75
2022/09/24 01:24:54;;;;;;;1999.90;999.90;;;;;;;-144.65;100.00;64500.88;5032367;28;20053;-77
2022/09/24 01:27:25;;;;;;;1999.90;999.90;;;;;;;-144.65;100.00;64500.88;5032252;28;20033;-76
2022/09/24 01:30:09;;;;;;;1999.90;999.90;;;;;;;-144.65;100.00;64500.88;5033463;28;20539;-76
2022/09/24 01:32:52;;;;;;;1999.90;999.90;;;;;;;-144.65;100.00;64500.88;5032444;28;20044;-76
2022/09/24 01:35:27;;;;;;;1999.90;999.90;;;;;;;-144.65;100.00;64500.88;5032271;28;20125;-76
2022/09/24 01:37:57;;;;;;;1999.90;999.90;;;;;;;-144.65;100.00;64500.88;5033517;28;20035;-76
2022/09/24 01:40:26;;;;;;;1999.90;999.90;;;;;;;-144.65;100.00;64500.88;5033156;28;20385;-76
2022/09/24 01:42:54;;;;;;;1999.90;999.90;;;;;;;-144.65;100.00;64500.88;5035247;28;20030;-76
2022/09/24 01:45:20;;;;;;;1999.90;999.90;;;;;;;-144.65;100.00;64500.88;5035009;28;20036;-76
2022/09/24 01:47:46;;;;;;;1999.90;999.90;;;;;;;-144.65;100.00;64500.88;5035607;28;20108;-77
2022/09/24 01:50:15;;;;;;;1999.90;999.90;;;;;;;-144.65;100.00;64500.88;5035677;28;20067;-77
2022/09/24 01:53:05;;;;;;;1999.90;999.90;;;;;;;-144.65;100.00;64500.88;5033580;28;20048;-76
2022/09/24 01:55:37;;;;;;;1999.90;999.90;;;;;;;-144.65;100.00;64500.88;5026086;28;20034;-76
2022/09/24 01:58:10;;;;;;;1999.90;999.90;;;;;;;-144.65;100.00;64500.88;5032706;28;20067;-76
2022/09/24 02:00:42;;;;;;;1999.90;999.90;;;;;;;-144.65;100.00;64500.88;5032537;28;20037;-76
2022/09/24 02:03:18;;;;;;;1999.90;999.90;;;;;;;-144.65;100.00;64500.88;5034066;28;20500;-76
2022/09/24 02:06:02;;;;;;;1999.90;999.90;;;;;;;-144.65;100.00;64500.88;5033556;28;20033;-75
2022/09/24 02:08:35;;;;;;;1999.90;999.90;;;;;;;-144.65;100.00;64500.88;5035689;28;20410;-77
2022/09/24 02:11:05;;;;;;;1999.90;999.90;;;;;;;-144.65;100.00;64500.88;5039955;28;20028;-76
2022/09/24 02:13:41;;;;;;;1999.90;999.90;;;;;;;-144.65;100.00;64500.88;5015120;28;20053;-76
2022/09/24 02:16:10;;;;;;;1999.90;999.90;;;;;;;-144.65;100.00;64500.88;5033283;28;20092;-75
2022/09/24 02:18:39;;;;;;;1999.90;999.90;;;;;;;-144.65;100.00;64500.88;5034287;28;20024;-76
2022/09/24 02:21:09;;;;;;;1999.90;999.90;;;;;;;-144.65;100.00;64500.88;5036826;28;20052;-77
2022/09/24 02:23:37;;;;;;;1999.90;999.90;;;;;;;-144.65;100.00;64500.88;5018043;28;20033;-76
2022/09/24 02:26:04;;;;;;;1999.90;999.90;;;;;;;-144.65;100.00;64500.88;5015664;28;20037;-76
2022/09/24 02:28:31;;;;;;;1999.90;999.90;;;;;;;-144.65;100.00;64500.88;4998509;28;20026;-76
2022/09/24 02:31:14;;;;;;;1999.90;999.90;;;;;;;-144.65;100.00;64500.88;4999028;28;20026;-75
2022/09/24 02:36:29;;;;;;;1999.90;999.90;;;;;;;-144.65;100.00;64500.88;5015217;28;20052;-76
2022/09/24 02:38:55;;;;;;;1999.90;999.90;;;;;;;-144.65;100.00;64500.88;5014964;28;20022;-76
2022/09/24 02:41:22;;;;;;;1999.90;999.90;;;;;;;-144.65;100.00;64500.88;5015697;28;20026;-76
2022/09/24 02:43:49;;;;;;;1999.90;999.90;;;;;;;-144.65;100.00;64500.88;5015116;28;20037;-76
2022/09/24 02:46:14;;;;;;;1999.90;999.90;;;;;;;-144.65;100.00;64500.88;5014680;28;20022;-76
2022/09/24 02:48:40;;;;;;;1999.90;999.90;;;;;;;-144.65;100.00;64500.88;5006752;28;20087;-76
2022/09/24 02:51:05;;;;;;;1999.90;999.90;;;;;;;-144.65;100.00;64500.88;5034907;28;20089;-75
2022/09/24 02:53:31;;;;;;;1999.90;999.90;;;;;;;-144.65;100.00;64500.88;5033860;28;20037;-75
2022/09/24 02:55:59;;;;;;;1999.90;999.90;;;;;;;-144.65;100.00;64500.88;5001627;28;20045;-74
2022/09/24 02:58:25;;;;;;;1999.90;999.90;;;;;;;-144.65;100.00;64500.88;5013508;28;20026;-75
2022/09/24 03:00:52;;;;;;;1999.90;999.90;;;;;;;-144.65;100.00;64500.88;5013713;28;20037;-76
2022/09/24 03:03:17;;;;;;;1999.90;999.90;;;;;;;-144.65;100.00;64500.88;5014047;28;20038;-74
2022/09/24 03:05:44;;;;;;;1999.90;999.90;;;;;;;-144.65;100.00;64500.88;5013008;28;20022;-75
2022/09/24 03:08:09;;;;;;;1999.90;999.90;;;;;;;-144.65;100.00;64500.88;4995750;28;20068;-75
2022/09/24 03:10:35;;;;;;;1999.90;999.90;;;;;;;-144.65;100.00;64500.88;5013341;28;20430;-75
2022/09/24 03:13:00;;;;;;;1999.90;999.90;;;;;;;-144.65;100.00;64500.88;5013178;28;20109;-74
2022/09/24 03:15:26;;;;;;;1999.90;999.90;;;;;;;-144.65;100.00;64500.88;5013492;28;20021;-75
2022/09/24 03:17:52;;;;;;;1999.90;999.90;;;;;;;-144.65;100.00;64500.88;5013418;28;20367;-76
2022/09/24 03:20:17;;;;;;;1999.90;999.90;;;;;;;-144.65;100.00;64500.88;5013161;28;20486;-75
2022/09/24 03:22:42;;;;;;;1999.90;999.90;;;;;;;-144.65;100.00;64500.88;5012926;28;20042;-75
2022/09/24 03:25:09;;;;;;;1999.90;999.90;;;;;;;-144.65;100.00;64500.88;5012964;28;20034;-75
2022/09/24 03:27:35;;;;;;;1999.90;999.90;;;;;;;-144.65;100.00;64500.88;5013075;28;20034;-75
2022/09/24 03:32:46;;;;;;;1999.90;999.90;;;;;;;-144.65;100.00;64500.88;5014031;28;20048;-76
2022/09/24 03:35:12;;;;;;;1999.90;999.90;;;;;;;-144.65;100.00;64500.88;5013910;28;20030;-76
2022/09/24 03:37:37;;;;;;;1999.90;999.90;;;;;;;-144.65;100.00;64500.88;5014022;28;20037;-76
2022/09/24 03:40:05;;;;;;;1999.90;999.90;;;;;;;-144.65;100.00;64500.88;5012934;28;20054;-75
2022/09/24 03:42:32;;;;;;;1999.90;999.90;;;;;;;-144.65;100.00;64500.88;5013363;28;20497;-76
2022/09/24 03:44:57;;;;;;;1999.90;999.90;;;;;;;-144.65;100.00;64500.88;5014237;28;20028;-76
2022/09/24 03:47:23;;;;;;;1999.90;999.90;;;;;;;-144.65;100.00;64500.88;5014978;28;20112;-76
2022/09/24 03:49:48;;;;;;;1999.90;999.90;;;;;;;-144.65;100.00;64500.88;5015340;28;20033;-75
2022/09/24 03:52:14;;;;;;;1999.90;999.90;;;;;;;-144.65;100.00;64500.88;5013305;28;20026;-75
2022/09/24 03:54:39;;;;;;;1999.90;999.90;;;;;;;-144.65;100.00;64500.88;5024328;28;20057;-74
2022/09/24 03:57:04;;;;;;;1999.90;999.90;;;;;;;-144.65;100.00;64500.88;5020281;28;20058;-76
2022/09/24 03:59:30;;;;;;;1999.90;999.90;;;;;;;-144.65;100.00;64500.88;5022403;28;20049;-74
2022/09/24 04:01:55;;;;;;;1999.90;999.90;;;;;;;-144.65;100.00;64500.88;5024582;28;20026;-76
2022/09/24 04:04:20;;;;;;;1999.90;999.90;;;;;;;-144.65;100.00;64500.88;5017042;28;20044;-76
2022/09/24 04:06:45;;;;;;;1999.90;999.90;;;;;;;-144.65;100.00;64500.88;5013833;28;20034;-76
2022/09/24 04:09:11;;;;;;;1999.90;999.90;;;;;;;-144.65;100.00;64500.88;5013505;28;20034;-76
2022/09/24 04:11:36;;;;;;;1999.90;999.90;;;;;;;-144.65;100.00;64500.88;5012996;28;20056;-76
2022/09/24 04:14:02;;;;;;;1999.90;999.90;;;;;;;-144.65;100.00;64500.88;5032444;28;20037;-76
2022/09/24 04:16:27;;;;;;;1999.90;999.90;;;;;;;-144.65;100.00;64500.88;5033017;28;20486;-76
2022/09/24 04:18:54;;;;;;;1999.90;999.90;;;;;;;-144.65;100.00;64500.88;5032478;28;20052;-75
2022/09/24 04:21:20;;;;;;;1999.90;999.90;;;;;;;-144.65;100.00;64500.88;5032522;28;20021;-76
2022/09/24 04:23:46;;;;;;;1999.90;999.90;;;;;;;-144.65;100.00;64500.88;5032950;28;20056;-77
2022/09/24 04:26:12;;;;;;;1999.90;999.90;;;;;;;-144.65;100.00;64500.88;5032420;28;20108;-76
2022/09/24 04:28:37;;;;;;;1999.90;999.90;;;;;;;-144.65;100.00;64500.88;5032520;28;20109;-77
2022/09/24 04:31:03;;;;;;;1999.90;999.90;;;;;;;-144.65;100.00;64500.88;5032680;28;20025;-75
2022/09/24 04:33:28;;;;;;;1999.90;999.90;;;;;;;-144.65;100.00;64500.88;5015033;28;20442;-76
2022/09/24 04:35:53;;;;;;;1999.90;999.90;;;;;;;-144.65;100.00;64500.88;5033022;28;20108;-77
2022/09/24 04:38:20;;;;;;;1999.90;999.90;;;;;;;-144.65;100.00;64500.88;5032167;28;20402;-75
2022/09/24 04:40:46;;;;;;;1999.90;999.90;;;;;;;-144.65;100.00;64500.88;5031385;28;20466;-75
2022/09/24 04:43:12;;;;;;;1999.90;999.90;;;;;;;-144.65;100.00;64500.88;5031720;28;20037;-76
2022/09/24 04:45:37;;;;;;;1999.90;999.90;;;;;;;-144.65;100.00;64500.88;5031538;28;20030;-75
2022/09/24 04:48:03;;;;;;;1999.90;999.90;;;;;;;-144.65;100.00;64500.88;5031769;28;20084;-76
2022/09/24 04:50:32;;;;;;;1999.90;999.90;;;;;;;-144.65;100.00;64500.88;5032101;28;20116;-75
2022/09/24 04:52:58;;;;;;;1999.90;999.90;;;;;;;-144.65;100.00;64500.88;5031728;28;20025;-75
2022/09/24 04:55:24;;;;;;;1999.90;999.90;;;;;;;-144.65;100.00;64500.88;5007097;28;20494;-75
2022/09/24 04:57:49;;;;;;;1999.90;999.90;;;;;;;-144.65;100.00;64500.88;5008500;28;20057;-75
2022/09/24 05:00:17;;;;;;;1999.90;999.90;;;;;;;-144.65;100.00;64500.88;5008157;28;20069;-74
2022/09/24 05:02:43;;;;;;;1999.90;999.90;;;;;;;-144.65;100.00;64500.88;4992214;28;20122;-76
2022/09/24 05:05:10;;;;;;;1999.90;999.90;;;;;;;-144.65;100.00;64500.88;4991837;28;20109;-76
2022/09/24 05:07:36;;;;;;;1999.90;999.90;;;;;;;-144.65;100.00;64500.88;4992098;28;20041;-76
2022/09/24 05:10:02;;;;;;;1999.90;999.90;;;;;;;-144.65;100.00;64500.88;4991651;28;20134;-76
2022/09/24 05:12:27;;;;;;;1999.90;999.90;;;;;;;-144.65;100.00;64500.88;4995040;28;20132;-76
2022/09/24 05:14:53;;;;;;;1999.90;999.90;;;;;;;-144.65;100.00;64500.88;5011324;28;20497;-76
2022/09/24 05:17:18;;;;;;;1999.90;999.90;;;;;;;-144.65;100.00;64500.88;5011322;28;20022;-75
2022/09/24 05:19:43;;;;;;;1999.90;999.90;;;;;;;-144.65;100.00;64500.88;5011368;28;20467;-76
2022/09/24 05:22:09;;;;;;;1999.90;999.90;;;;;;;-144.65;100.00;64500.88;5011142;28;20061;-74
2022/09/24 05:24:34;;;;;;;1999.90;999.90;;;;;;;-144.65;100.00;64500.88;5012480;28;20030;-76
2022/09/24 05:27:09;;;;;;;1999.90;999.90;;;;;;;-144.65;100.00;64500.88;5012339;28;20026;-76
2022/09/24 05:29:39;;;;;;;1999.90;999.90;;;;;;;-144.65;100.00;64500.88;5013018;28;20029;-77
2022/09/24 05:32:07;;;;;;;1999.90;999.90;;;;;;;-144.65;100.00;64500.88;5016045;28;20061;-78
2022/09/24 05:34:33;;;;;;;1999.90;999.90;;;;;;;-144.65;100.00;64500.88;5016707;28;20033;-76
2022/09/24 05:36:59;;;;;;;1999.90;999.90;;;;;;;-144.65;100.00;64500.88;5024635;28;20037;-78
2022/09/24 05:39:24;;;;;;;1999.90;999.90;;;;;;;-144.65;100.00;64500.88;5018590;28;20103;-77
2022/09/24 05:41:49;;;;;;;1999.90;999.90;;;;;;;-144.65;100.00;64500.88;5019408;28;20062;-79
2022/09/24 05:44:18;;;;;;;1999.90;999.90;;;;;;;-144.65;100.00;64500.88;5020479;28;20038;-78
2022/09/24 05:46:43;;;;;;;1999.90;999.90;;;;;;;-144.65;100.00;64500.88;5031284;28;20053;-80
2022/09/24 05:49:09;;;;;;;1999.90;999.90;;;;;;;-144.65;100.00;64500.88;5030756;28;20382;-79
2022/09/24 05:51:34;;;;;;;1999.90;999.90;;;;;;;-144.65;100.00;64500.88;5016983;28;20033;-80
2022/09/24 05:53:59;;;;;;;1999.90;999.90;;;;;;;-144.65;100.00;64500.88;5036159;28;20025;-80
2022/09/24 05:56:25;;;;;;;1999.90;999.90;;;;;;;-144.65;100.00;64500.88;5035332;28;20034;-80
2022/09/24 05:58:50;;;;;;;1999.90;999.90;;;;;;;-144.65;100.00;64500.88;5028409;28;20057;-78
2022/09/24 06:01:16;;;;;;;1999.90;999.90;;;;;;;-144.65;100.00;64500.88;5021013;28;20039;-78
2022/09/24 06:03:41;;;;;;;1999.90;999.90;;;;;;;-144.65;100.00;64500.88;5019779;28;20037;-77
2022/09/24 06:06:07;;;;;;;1999.90;999.90;;;;;;;-144.65;100.00;64500.88;5020652;28;20037;-79
2022/09/24 06:08:32;;;;;;;1999.90;999.90;;;;;;;-144.65;100.00;64500.88;5019516;28;20120;-77
2022/09/24 06:11:07;;;;;;;1999.90;999.90;;;;;;;-144.65;100.00;64500.88;5020836;28;20387;-78
2022/09/24 06:13:33;;;;;;;1999.90;999.90;;;;;;;-144.65;100.00;64500.88;5021376;28;20126;-77
2022/09/24 06:16:10;;;;;;;1999.90;999.90;;;;;;;-144.65;100.00;64500.88;5019455;28;20033;-77
2022/09/24 06:18:38;;;;;;;1999.90;999.90;;;;;;;-144.65;100.00;64500.88;5018968;28;20018;-78
2022/09/24 06:21:09;;;;;;;1999.90;999.90;;;;;;;-144.65;100.00;64500.88;5021269;28;20034;-78
2022/09/24 06:23:35;;;;;;;1999.90;999.90;;;;;;;-144.65;100.00;64500.88;5022763;28;20030;-78
2022/09/24 06:26:00;;;;;;;1999.90;999.90;;;;;;;-144.65;100.00;64500.88;5023098;28;20040;-80
2022/09/24 06:28:26;;;;;;;1999.90;999.90;;;;;;;-144.65;100.00;64500.88;5022485;28;20075;-77
2022/09/24 06:30:52;;;;;;;1999.90;999.90;;;;;;;-144.65;100.00;64500.88;5019683;28;20021;-77
2022/09/24 06:33:19;;;;;;;1999.90;999.90;;;;;;;-144.65;100.00;64500.88;5024235;28;20513;-77
2022/09/24 06:35:44;;;;;;;1999.90;999.90;;;;;;;-144.65;100.00;64500.88;5021850;28;20033;-78
2022/09/24 06:38:11;;;;;;;1999.90;999.90;;;;;;;-144.65;100.00;64500.88;5023033;28;20034;-78
2022/09/24 06:40:37;;;;;;;1999.90;999.90;;;;;;;-144.65;100.00;64500.88;5019248;28;20026;-77
2022/09/24 06:43:08;;;;;;;1999.90;999.90;;;;;;;-144.65;100.00;64500.88;5019488;28;20029;-78
2022/09/24 06:45:34;;;;;;;1999.90;999.90;;;;;;;-144.65;100.00;64500.88;5021366;28;20533;-78
2022/09/24 06:48:01;;;;;;;1999.90;999.90;;;;;;;-144.65;100.00;64500.88;5021471;28;20018;-79
2022/09/24 06:50:29;;;;;;;1999.90;999.90;;;;;;;-144.65;100.00;64500.88;5019677;28;20029;-78
2022/09/24 06:52:55;;;;;;;1999.90;999.90;;;;;;;-144.65;100.00;64500.88;5027911;28;20121;-79
2022/09/24 06:55:21;;;;;;;1999.90;999.90;;;;;;;-144.65;100.00;64500.88;5005472;28;20038;-80
2022/09/24 06:57:46;;;;;;;1999.90;999.90;;;;;;;-144.65;100.00;64500.88;5021331;28;20033;-79
2022/09/24 07:00:13;;;;;;;1999.90;999.90;;;;;;;-144.65;100.00;64500.88;5023622;28;20033;-78
2022/09/24 07:02:39;;;;;;;1999.90;999.90;;;;;;;-144.65;100.00;64500.88;5022236;28;20033;-78
2022/09/24 07:05:05;;;;;;;1999.90;999.90;;;;;;;-144.65;100.00;64500.88;5018235;28;20079;-78
2022/09/24 07:07:33;;;;;;;1999.90;999.90;;;;;;;-144.65;100.00;64500.88;5018944;28;20037;-78
2022/09/24 07:10:03;;;;;;;1999.90;999.90;;;;;;;-144.65;100.00;64500.88;5017241;28;20452;-77
2022/09/24 07:12:30;;;;;;;1999.90;999.90;;;;;;;-144.65;100.00;64500.88;5019841;28;20050;-79
2022/09/24 07:14:56;;;;;;;1999.90;999.90;;;;;;;-144.65;100.00;64500.88;5023381;28;20026;-79
2022/09/24 07:17:23;;;;;;;1999.90;999.90;;;;;;;-144.65;100.00;64500.88;5024581;28;20021;-78
2022/09/24 07:19:48;;;;;;;1999.90;999.90;;;;;;;-144.65;100.00;64500.88;5023515;28;20030;-78
2022/09/24 07:22:13;;;;;;;1999.90;999.90;;;;;;;-144.65;100.00;64500.88;5019643;28;20123;-79
2022/09/24 07:24:39;;;;;;;1999.90;999.90;;;;;;;-144.65;100.00;64500.88;5022536;28;20022;-79
2022/09/24 07:27:05;;;;;;;1999.90;999.90;;;;;;;-144.65;100.00;64500.88;5027108;28;20033;-76
2022/09/24 07:29:31;;;;;;;1999.90;999.90;;;;;;;-144.65;100.00;64500.88;5008389;28;20022;-76
2022/09/24 07:31:57;;;;;;;1999.90;999.90;;;;;;;-144.65;100.00;64500.88;5016647;28;20034;-80
2022/09/24 07:34:22;;;;;;;1999.90;999.90;;;;;;;-144.65;100.00;64500.88;5029775;28;20101;-77
2022/09/24 07:36:47;;;;;;;1999.90;999.90;;;;;;;-144.65;100.00;64500.88;5010507;28;20024;-78
2022/09/24 07:39:13;;;;;;;1999.90;999.90;;;;;;;-144.65;100.00;64500.88;5026303;28;20387;-78
2022/09/24 07:41:39;;;;;;;1999.90;999.90;;;;;;;-144.65;100.00;64500.88;5023261;28;20025;-77
2022/09/24 07:44:06;;;;;;;1999.90;999.90;;;;;;;-144.65;100.00;64500.88;5017337;28;20105;-77
2022/09/24 07:46:32;;;;;;;1999.90;999.90;;;;;;;-144.65;100.00;64500.88;5025918;28;20057;-78
2022/09/24 07:48:59;;;;;;;1999.90;999.90;;;;;;;-144.65;100.00;64500.88;5023205;28;20018;-78
2022/09/24 07:51:27;;;;;;;1999.90;999.90;;;;;;;-144.65;100.00;64500.88;5029743;28;20097;-78
2022/09/24 07:53:56;;;;;;;1999.90;999.90;;;;;;;-144.65;100.00;64500.88;5025087;28;20386;-77
2022/09/24 07:56:22;;;;;;;1999.90;999.90;;;;;;;-144.65;100.00;64500.88;5005516;28;20541;-78
2022/09/24 07:58:49;;;;;;;1999.90;999.90;;;;;;;-144.65;100.00;64500.88;5009054;28;20030;-78
2022/09/24 08:01:16;;;;;;;1999.90;999.90;;;;;;;-144.65;100.00;64500.88;5022490;28;20022;-78
2022/09/24 08:03:43;;;;;;;1999.90;999.90;;;;;;;-144.65;100.00;64500.88;5029242;28;20064;-80
2022/09/24 08:06:08;;;;;;;1999.90;999.90;;;;;;;-144.65;100.00;64500.88;5028936;28;20021;-81
2022/09/24 08:08:34;;;;;;;1999.90;999.90;;;;;;;-144.65;100.00;64500.88;5041393;28;20032;-75
2022/09/24 08:11:04;;;;;;;1999.90;999.90;;;;;;;-144.65;100.00;64500.88;5021936;28;20014;-80
2022/09/24 08:13:29;;;;;;;1999.90;999.90;;;;;;;-144.65;100.00;64500.88;5034102;28;20498;-80
2022/09/24 08:15:58;;;;;;;1999.90;999.90;;;;;;;-144.65;100.00;64500.88;5037833;28;20036;-76
2022/09/24 08:18:23;;;;;;;1999.90;999.90;;;;;;;-144.65;100.00;64500.88;5041057;28;20033;-77
2022/09/24 08:20:48;;;;;;;1999.90;999.90;;;;;;;-144.65;100.00;64500.88;5038307;28;20422;-77
2022/09/24 08:23:14;;;;;;;1999.90;999.90;;;;;;;-144.65;100.00;64500.88;5042596;28;20041;-76
2022/09/24 08:25:40;;;;;;;1999.90;999.90;;;;;;;-144.65;100.00;64500.88;5046550;28;20033;-79
2022/09/24 08:28:07;;;;;;;1999.90;999.90;;;;;;;-144.65;100.00;64500.88;5029477;28;20033;-77
2022/09/24 08:30:34;;;;;;;1999.90;999.90;;;;;;;-144.65;100.00;64500.88;5027592;28;20025;-76
2022/09/24 08:32:59;;;;;;;1999.90;999.90;;;;;;;-144.65;100.00;64500.88;5019009;28;20017;-77
2022/09/24 08:35:25;;;;;;;1999.90;999.90;;;;;;;-144.65;100.00;64500.88;5020006;28;20036;-75
2022/09/24 08:37:53;;;;;;;1999.90;999.90;;;;;;;-144.65;100.00;64500.88;5015392;28;20025;-76
2022/09/24 08:40:22;;;;;;;1999.90;999.90;;;;;;;-144.65;100.00;64500.88;5019939;28;20071;-78
2022/09/24 08:43:08;;;;;;;1999.90;999.90;;;;;;;-144.65;100.00;64500.88;5021565;28;20030;-76
2022/09/24 08:48:31;;;;;;;1999.90;999.90;;;;;;;-144.65;100.00;64500.88;5023678;28;20029;-76
2022/09/24 08:51:04;;;;;;;1999.90;999.90;;;;;;;-144.65;100.00;64500.88;5022596;28;20069;-77
2022/09/24 08:53:47;;;;;;;1999.90;999.90;;;;;;;-144.65;100.00;64500.88;5029385;28;20035;-77
2022/09/24 08:56:15;;;;;;;1999.90;999.90;;;;;;;-144.65;100.00;64500.88;5020129;28;20021;-77
2022/09/24 08:58:57;;;;;;;1999.90;999.90;;;;;;;-144.65;100.00;64500.88;5019774;28;20116;-78
2022/09/24 09:01:43;;;;;;;1999.90;999.90;;;;;;;-144.65;100.00;64500.88;5017296;28;20028;-78
2022/09/24 09:04:36;;;;;;;1999.90;999.90;;;;;;;-144.65;100.00;64500.88;5019232;28;20033;-79
2022/09/24 09:07:19;;;;;;;1999.90;999.90;;;;;;;-144.65;100.00;64500.88;5022491;28;20061;-77
2022/09/24 09:09:44;;;;;;;1999.90;999.90;;;;;;;-144.65;100.00;64500.88;5020965;28;20080;-77
2022/09/24 09:12:42;;;;;;;1999.90;999.90;;;;;;;-144.65;100.00;64500.88;5020916;28;20045;-76
2022/09/24 09:15:13;;;;;;;1999.90;999.90;;;;;;;-144.65;100.00;64500.88;5021341;28;20045;-76
2022/09/24 09:17:49;;;;;;;1999.90;999.90;;;;;;;-144.65;100.00;64500.88;5017932;28;20388;-76
2022/09/24 09:20:23;;;;;;;1999.90;999.90;;;;;;;-144.65;100.00;64500.88;5018167;28;20025;-75
2022/09/24 09:22:52;;;;;;;1999.90;999.90;;;;;;;-144.65;100.00;64500.88;5009592;28;20033;-78
2022/09/24 09:25:28;;;;;;;1999.90;999.90;;;;;;;-144.65;100.00;64500.88;5024211;28;20017;-78
2022/09/24 09:28:02;;;;;;;1999.90;999.90;;;;;;;-144.65;100.00;64500.88;5022692;28;20022;-77
2022/09/24 09:30:42;;;;;;;1999.90;999.90;;;;;;;-144.65;100.00;64500.88;5021793;28;20026;-77
2022/09/24 09:33:23;;;;;;;1999.90;999.90;;;;;;;-144.65;100.00;64500.88;5020184;28;20017;-77
2022/09/24 09:36:09;;;;;;;1999.90;999.90;;;;;;;-144.65;100.00;64500.88;5023052;28;20037;-78
2022/09/24 09:38:55;;;;;;;1999.90;999.90;;;;;;;-144.65;100.00;64500.88;5015087;28;20038;-76
2022/09/24 09:41:36;;;;;;;1999.90;999.90;;;;;;;-144.65;100.00;64500.88;5030376;28;20056;-77
2022/09/24 09:44:12;;;;;;;1999.90;999.90;;;;;;;-144.65;100.00;64500.88;5016373;28;20036;-76
2022/09/24 09:46:49;;;;;;;1999.90;999.90;;;;;;;-144.65;100.00;64500.88;5018675;28;20026;-76
2022/09/24 09:49:16;;;;;;;1999.90;999.90;;;;;;;-144.65;100.00;64500.88;5013698;28;20093;-77
2022/09/24 09:51:47;;;;;;;1999.90;999.90;;;;;;;-144.65;100.00;64500.88;5015826;28;20069;-76
2022/09/24 09:54:12;;;;;;;1999.90;999.90;;;;;;;-144.65;100.00;64500.88;4996489;28;20095;-77
2022/09/24 09:56:46;;;;;;;1999.90;999.90;;;;;;;-144.65;100.00;64500.88;5016615;28;20789;-75
2022/09/24 09:59:12;;;;;;;1999.90;999.90;;;;;;;-144.65;100.00;64500.88;5024590;28;20026;-75
2022/09/24 10:01:42;;;;;;;1999.90;999.90;;;;;;;-144.65;100.00;64500.88;5013491;28;20026;-77
2022/09/24 10:04:31;;;;;;;1999.90;999.90;;;;;;;-144.65;100.00;64500.88;5017378;28;20666;-76
2022/09/24 10:07:15;;;;;;;1999.90;999.90;;;;;;;-144.65;100.00;64500.88;5018836;28;20026;-77
2022/09/24 10:09:43;;;;;;;1999.90;999.90;;;;;;;-144.65;100.00;64500.88;5015050;28;20395;-77
2022/09/24 10:12:14;;;;;;;1999.90;999.90;;;;;;;-144.65;100.00;64500.88;5020114;28;20120;-78
2022/09/24 10:14:39;;;;;;;1999.90;999.90;;;;;;;-144.65;100.00;64500.88;5018025;28;20090;-77
2022/09/24 10:17:05;;;;;;;1999.90;999.90;;;;;;;-144.65;100.00;64500.88;5018735;28;20532;-77
2022/09/24 10:19:35;;;;;;;1999.90;999.90;;;;;;;-144.65;100.00;64500.88;5022742;28;20025;-81
2022/09/24 10:22:17;;;;;;;1999.90;999.90;;;;;;;-144.65;100.00;64500.88;5015846;28;20036;-82
2022/09/24 10:24:43;;;;;;;1999.90;999.90;;;;;;;-144.65;100.00;64500.88;5019109;28;20030;-83
2022/09/24 10:27:18;;;;;;;1999.90;999.90;;;;;;;-144.65;100.00;64500.88;5018346;28;20113;-81
2022/09/24 10:32:28;;;;;;;1999.90;999.90;;;;;;;-144.65;100.00;64500.88;5023882;28;20088;-81
2022/09/24 10:35:04;;;;;;;1999.90;999.90;;;;;;;-144.65;100.00;64500.88;5021800;28;20030;-81
2022/09/24 10:37:30;;;;;;;1999.90;999.90;;;;;;;-144.65;100.00;64500.88;5021892;28;20030;-84
2022/09/24 10:40:00;;;;;;;1999.90;999.90;;;;;;;-144.65;100.00;64500.88;5022928;28;20034;-85
2022/09/24 10:42:28;;;;;;;1999.90;999.90;;;;;;;-144.65;100.00;64500.88;5028848;28;20399;-85
2022/09/24 10:44:57;;;;;;;1999.90;999.90;;;;;;;-144.65;100.00;64500.88;5026946;28;20391;-83
2022/09/24 10:47:28;;;;;;;1999.90;999.90;;;;;;;-144.65;100.00;64500.88;5014281;28;20402;-82
2022/09/24 10:50:19;;;;;;;1999.90;999.90;;;;;;;-144.65;100.00;64500.88;5029968;28;20069;-82
2022/09/24 10:52:55;;;;;;;1999.90;999.90;;;;;;;-144.65;100.00;64500.88;5038362;28;20888;-82
2022/09/24 10:55:52;;;;;;;1999.90;999.90;;;;;;;-144.65;100.00;64500.88;5037853;28;20022;-81